createdAt,value
2018-05-27T00:00:14.457Z,0.00
2018-05-27T00:01:14.434Z,0.00
2018-05-27T00:02:14.434Z,0.00
2018-05-27T00:03:14.418Z,0.00
2018-05-27T00:04:14.421Z,0.00
2018-05-27T00:05:14.395Z,0.00
2018-05-27T00:06:14.408Z,0.00
2018-05-27T00:07:14.389Z,0.00
2018-05-27T00:08:14.365Z,0.00
2018-05-27T00:09:14.372Z,0.00
2018-05-27T00:10:14.356Z,0.00
2018-05-27T00:11:14.336Z,0.00
2018-05-27T00:12:14.326Z,0.00
2018-05-27T00:13:14.313Z,0.00
2018-05-27T00:14:14.330Z,0.00
2018-05-27T00:15:14.294Z,0.00
2018-05-27T00:16:14.279Z,0.00
2018-05-27T00:17:14.274Z,0.00
2018-05-27T00:18:14.259Z,0.00
2018-05-27T00:19:14.250Z,0.00
2018-05-27T00:20:14.257Z,0.00
2018-05-27T00:21:14.224Z,0.00
2018-05-27T00:22:14.215Z,0.00
2018-05-27T00:23:14.206Z,0.00
2018-05-27T00:24:14.196Z,0.00
2018-05-27T00:25:14.189Z,0.00
2018-05-27T00:26:14.199Z,0.00
2018-05-27T00:27:14.160Z,0.00
2018-05-27T00:28:14.152Z,0.00
2018-05-27T00:29:14.143Z,0.00
2018-05-27T00:30:14.131Z,0.00
2018-05-27T00:31:14.141Z,0.00
2018-05-27T00:32:14.112Z,0.00
2018-05-27T00:33:14.099Z,0.00
2018-05-27T00:34:14.087Z,0.00
2018-05-27T00:35:14.079Z,0.00
2018-05-27T00:36:14.086Z,0.00
2018-05-27T00:37:14.068Z,0.00
2018-05-27T00:38:14.047Z,0.00
2018-05-27T00:39:14.034Z,0.00
2018-05-27T00:40:14.040Z,0.00
2018-05-27T00:41:14.011Z,0.00
2018-05-27T00:42:14.021Z,0.00
2018-05-27T00:43:13.990Z,0.00
2018-05-27T00:44:13.978Z,0.00
2018-05-27T00:45:13.968Z,0.00
2018-05-27T00:46:13.961Z,0.00
2018-05-27T00:47:13.965Z,0.00
2018-05-27T00:48:13.933Z,0.00
2018-05-27T00:49:13.922Z,0.00
2018-05-27T00:50:13.923Z,0.00
2018-05-27T00:51:13.909Z,0.00
2018-05-27T00:52:13.907Z,0.00
2018-05-27T00:53:13.901Z,0.00
2018-05-27T00:54:13.895Z,0.00
2018-05-27T00:55:13.862Z,0.00
2018-05-27T00:56:13.849Z,0.00
2018-05-27T00:57:13.848Z,0.00
2018-05-27T00:58:13.871Z,0.00
2018-05-27T00:59:13.830Z,0.00
2018-05-27T01:00:13.810Z,0.00
2018-05-27T01:01:13.798Z,0.00
2018-05-27T01:02:13.783Z,0.00
2018-05-27T01:03:13.769Z,0.00
2018-05-27T01:04:13.773Z,0.00
2018-05-27T01:05:13.754Z,0.00
2018-05-27T01:06:13.754Z,0.00
2018-05-27T01:07:13.733Z,0.00
2018-05-27T01:08:13.737Z,0.00
2018-05-27T01:09:13.728Z,0.00
2018-05-27T01:10:13.697Z,0.00
2018-05-27T01:11:13.686Z,0.00
2018-05-27T01:12:13.763Z,0.00
2018-05-27T01:13:13.667Z,0.00
2018-05-27T01:14:13.671Z,0.00
2018-05-27T01:15:13.640Z,0.00
2018-05-27T01:16:13.635Z,0.00
2018-05-27T01:17:13.624Z,0.00
2018-05-27T01:18:13.613Z,0.00
2018-05-27T01:19:13.617Z,0.00
2018-05-27T01:20:13.587Z,0.00
2018-05-27T01:21:13.575Z,0.00
2018-05-27T01:22:13.566Z,0.00
2018-05-27T01:23:13.555Z,0.00
2018-05-27T01:24:13.564Z,0.00
2018-05-27T01:25:13.536Z,0.00
2018-05-27T01:26:13.524Z,0.00
2018-05-27T01:27:13.509Z,0.00
2018-05-27T01:28:13.497Z,0.00
2018-05-27T01:29:13.516Z,0.00
2018-05-27T01:30:13.483Z,0.00
2018-05-27T01:31:13.469Z,0.00
2018-05-27T01:32:13.472Z,0.00
2018-05-27T01:33:13.443Z,0.00
2018-05-27T01:34:13.448Z,0.00
2018-05-27T01:35:13.439Z,0.00
2018-05-27T01:36:13.413Z,0.00
2018-05-27T01:37:13.416Z,0.00
2018-05-27T01:38:13.392Z,0.00
2018-05-27T01:39:13.384Z,0.00
2018-05-27T01:40:13.364Z,0.00
2018-05-27T01:41:13.356Z,0.00
2018-05-27T01:42:13.364Z,0.00
2018-05-27T01:43:13.349Z,0.00
2018-05-27T01:44:13.334Z,0.00
2018-05-27T01:45:13.313Z,0.00
2018-05-27T01:46:13.324Z,0.00
2018-05-27T01:47:13.295Z,0.00
2018-05-27T01:48:13.273Z,0.00
2018-05-27T01:49:13.268Z,0.00
2018-05-27T01:50:13.257Z,0.00
2018-05-27T01:51:13.262Z,0.00
2018-05-27T01:52:13.232Z,0.00
2018-05-27T01:53:13.236Z,0.00
2018-05-27T01:54:13.209Z,0.00
2018-05-27T01:55:13.206Z,0.00
2018-05-27T01:56:13.193Z,0.00
2018-05-27T01:57:13.172Z,0.00
2018-05-27T01:58:13.199Z,0.00
2018-05-27T01:59:13.159Z,0.00
2018-05-27T02:00:13.146Z,0.00
2018-05-27T02:01:13.127Z,0.00
2018-05-27T02:02:13.123Z,0.00
2018-05-27T02:03:13.108Z,0.00
2018-05-27T02:04:13.110Z,0.00
2018-05-27T02:05:13.085Z,0.00
2018-05-27T02:06:13.077Z,0.00
2018-05-27T02:07:13.062Z,0.00
2018-05-27T02:08:13.078Z,0.00
2018-05-27T02:09:13.066Z,0.00
2018-05-27T02:10:13.028Z,0.00
2018-05-27T02:11:13.024Z,0.00
2018-05-27T02:12:13.009Z,0.00
2018-05-27T02:13:12.995Z,0.00
2018-05-27T02:14:13.000Z,0.00
2018-05-27T02:15:12.968Z,0.00
2018-05-27T02:16:12.961Z,0.00
2018-05-27T02:17:12.948Z,0.00
2018-05-27T02:18:12.939Z,0.00
2018-05-27T02:19:12.951Z,0.00
2018-05-27T02:20:12.917Z,0.00
2018-05-27T02:21:12.904Z,0.00
2018-05-27T02:22:12.936Z,0.00
2018-05-27T02:23:12.881Z,0.00
2018-05-27T02:24:12.886Z,0.00
2018-05-27T02:25:12.874Z,0.00
2018-05-27T02:26:12.847Z,0.00
2018-05-27T02:27:12.837Z,0.00
2018-05-27T02:28:12.824Z,0.00
2018-05-27T02:29:12.817Z,0.00
2018-05-27T02:30:12.816Z,0.00
2018-05-27T02:31:12.795Z,0.00
2018-05-27T02:32:12.781Z,0.00
2018-05-27T02:33:12.776Z,0.00
2018-05-27T02:34:12.759Z,0.00
2018-05-27T02:35:12.753Z,0.00
2018-05-27T02:36:12.751Z,0.00
2018-05-27T02:37:12.722Z,0.00
2018-05-27T02:38:12.715Z,0.00
2018-05-27T02:39:12.699Z,0.00
2018-05-27T02:40:12.689Z,0.00
2018-05-27T02:41:12.692Z,0.00
2018-05-27T02:42:12.666Z,0.00
2018-05-27T02:43:12.654Z,0.00
2018-05-27T02:44:12.638Z,0.00
2018-05-27T02:45:12.647Z,0.00
2018-05-27T02:46:12.620Z,0.00
2018-05-27T02:47:12.625Z,0.00
2018-05-27T02:48:12.601Z,0.00
2018-05-27T02:49:12.584Z,0.00
2018-05-27T02:50:12.571Z,0.00
2018-05-27T02:51:12.576Z,0.00
2018-05-27T02:52:12.563Z,0.00
2018-05-27T02:53:12.539Z,0.00
2018-05-27T02:54:12.528Z,0.00
2018-05-27T02:55:12.516Z,0.00
2018-05-27T02:56:12.517Z,0.00
2018-05-27T02:57:12.492Z,0.00
2018-05-27T02:58:12.478Z,0.00
2018-05-27T02:59:12.480Z,0.00
2018-05-27T03:00:12.453Z,0.00
2018-05-27T03:01:12.463Z,0.00
2018-05-27T03:02:12.436Z,0.00
2018-05-27T03:03:12.421Z,0.00
2018-05-27T03:04:12.436Z,0.00
2018-05-27T03:05:12.417Z,0.00
2018-05-27T03:06:12.389Z,0.00
2018-05-27T03:07:12.376Z,0.00
2018-05-27T03:08:12.365Z,0.00
2018-05-27T03:09:12.354Z,0.00
2018-05-27T03:10:12.364Z,0.00
2018-05-27T03:11:12.362Z,0.00
2018-05-27T03:12:12.322Z,0.00
2018-05-27T03:13:12.314Z,0.00
2018-05-27T03:14:12.296Z,0.00
2018-05-27T03:15:12.302Z,0.00
2018-05-27T03:16:12.273Z,0.00
2018-05-27T03:17:12.264Z,0.00
2018-05-27T03:18:12.265Z,0.00
2018-05-27T03:19:12.242Z,0.00
2018-05-27T03:20:12.228Z,0.00
2018-05-27T03:21:12.213Z,0.00
2018-05-27T03:22:12.218Z,0.00
2018-05-27T03:23:12.193Z,0.00
2018-05-27T03:24:12.176Z,0.00
2018-05-27T03:25:12.168Z,0.00
2018-05-27T03:26:12.155Z,0.00
2018-05-27T03:27:12.159Z,0.00
2018-05-27T03:28:12.154Z,0.00
2018-05-27T03:29:12.125Z,0.00
2018-05-27T03:30:12.111Z,0.00
2018-05-27T03:31:12.101Z,0.00
2018-05-27T03:32:12.108Z,0.00
2018-05-27T03:33:12.079Z,0.00
2018-05-27T03:34:12.068Z,0.00
2018-05-27T03:35:12.061Z,0.00
2018-05-27T03:36:12.057Z,5.63
2018-05-27T03:37:12.048Z,5.63
2018-05-27T03:38:12.033Z,5.63
2018-05-27T03:39:12.026Z,5.63
2018-05-27T03:40:11.993Z,5.63
2018-05-27T03:41:11.987Z,5.63
2018-05-27T03:42:11.988Z,5.63
2018-05-27T03:43:11.979Z,5.63
2018-05-27T03:44:11.959Z,5.63
2018-05-27T03:45:11.938Z,5.63
2018-05-27T03:46:11.930Z,5.63
2018-05-27T03:47:11.915Z,5.63
2018-05-27T03:48:11.927Z,5.63
2018-05-27T03:49:11.911Z,5.63
2018-05-27T03:50:11.885Z,5.63
2018-05-27T03:51:11.872Z,5.63
2018-05-27T03:52:11.857Z,5.63
2018-05-27T03:53:11.866Z,11.25
2018-05-27T03:54:11.843Z,11.25
2018-05-27T03:55:11.829Z,11.25
2018-05-27T03:56:11.835Z,11.25
2018-05-27T03:57:11.804Z,11.25
2018-05-27T03:58:11.815Z,11.25
2018-05-27T03:59:11.795Z,11.25
2018-05-27T04:00:11.794Z,11.25
2018-05-27T04:01:11.760Z,11.25
2018-05-27T04:02:11.756Z,16.88
2018-05-27T04:03:11.745Z,16.88
2018-05-27T04:04:11.727Z,16.88
2018-05-27T04:05:11.749Z,16.88
2018-05-27T04:06:11.701Z,16.88
2018-05-27T04:07:11.692Z,16.88
2018-05-27T04:08:11.683Z,16.88
2018-05-27T04:09:11.672Z,16.88
2018-05-27T04:10:11.658Z,16.88
2018-05-27T04:11:11.665Z,22.50
2018-05-27T04:12:11.642Z,22.50
2018-05-27T04:13:11.631Z,22.50
2018-05-27T04:14:11.618Z,22.50
2018-05-27T04:15:11.643Z,22.50
2018-05-27T04:16:11.598Z,22.50
2018-05-27T04:17:11.584Z,22.50
2018-05-27T04:18:11.570Z,22.50
2018-05-27T04:19:11.569Z,22.50
2018-05-27T04:20:11.549Z,22.50
2018-05-27T04:21:11.558Z,22.50
2018-05-27T04:22:11.534Z,22.50
2018-05-27T04:23:11.511Z,22.50
2018-05-27T04:24:11.505Z,22.50
2018-05-27T04:25:11.495Z,28.13
2018-05-27T04:26:11.483Z,28.13
2018-05-27T04:27:11.492Z,28.13
2018-05-27T04:28:11.462Z,28.13
2018-05-27T04:29:11.447Z,28.13
2018-05-27T04:30:11.441Z,28.13
2018-05-27T04:31:11.447Z,28.13
2018-05-27T04:32:11.431Z,33.75
2018-05-27T04:33:11.409Z,33.75
2018-05-27T04:34:11.393Z,33.75
2018-05-27T04:35:11.396Z,33.75
2018-05-27T04:36:11.387Z,28.13
2018-05-27T04:37:11.367Z,28.13
2018-05-27T04:38:11.371Z,28.13
2018-05-27T04:39:11.352Z,28.13
2018-05-27T04:40:11.329Z,33.75
2018-05-27T04:41:11.335Z,33.75
2018-05-27T04:42:11.340Z,33.75
2018-05-27T04:43:11.298Z,33.75
2018-05-27T04:44:11.288Z,33.75
2018-05-27T04:45:11.286Z,33.75
2018-05-27T04:46:11.283Z,33.75
2018-05-27T04:47:11.270Z,33.75
2018-05-27T04:48:11.253Z,39.38
2018-05-27T04:49:11.232Z,39.38
2018-05-27T04:50:11.225Z,39.38
2018-05-27T04:51:11.213Z,39.38
2018-05-27T04:52:11.224Z,39.38
2018-05-27T04:53:11.194Z,45.00
2018-05-27T04:54:11.199Z,39.38
2018-05-27T04:55:11.170Z,39.38
2018-05-27T04:56:11.159Z,39.38
2018-05-27T04:57:11.152Z,45.00
2018-05-27T04:58:11.145Z,45.00
2018-05-27T04:59:11.221Z,56.25
2018-05-27T05:00:11.118Z,56.25
2018-05-27T05:01:11.105Z,56.25
2018-05-27T05:02:11.112Z,61.88
2018-05-27T05:03:11.086Z,61.88
2018-05-27T05:04:11.074Z,61.88
2018-05-27T05:05:11.066Z,61.88
2018-05-27T05:06:11.049Z,61.88
2018-05-27T05:07:11.074Z,61.88
2018-05-27T05:08:11.035Z,61.88
2018-05-27T05:09:11.018Z,61.88
2018-05-27T05:10:11.018Z,61.88
2018-05-27T05:11:11.005Z,61.88
2018-05-27T05:12:10.993Z,61.88
2018-05-27T05:13:11.003Z,67.50
2018-05-27T05:14:10.974Z,67.50
2018-05-27T05:15:10.957Z,67.50
2018-05-27T05:16:10.954Z,67.50
2018-05-27T05:17:10.935Z,67.50
2018-05-27T05:18:10.945Z,67.50
2018-05-27T05:19:10.913Z,67.50
2018-05-27T05:20:10.904Z,67.50
2018-05-27T05:21:10.910Z,67.50
2018-05-27T05:22:10.894Z,67.50
2018-05-27T05:23:10.876Z,73.13
2018-05-27T05:24:10.881Z,73.13
2018-05-27T05:25:10.855Z,73.13
2018-05-27T05:26:10.861Z,73.13
2018-05-27T05:27:10.833Z,73.13
2018-05-27T05:28:10.820Z,67.50
2018-05-27T05:29:10.818Z,67.50
2018-05-27T05:30:10.807Z,73.13
2018-05-27T05:31:10.826Z,73.13
2018-05-27T05:32:10.786Z,73.13
2018-05-27T05:33:10.770Z,73.13
2018-05-27T05:34:10.765Z,73.13
2018-05-27T05:35:10.754Z,73.13
2018-05-27T05:36:10.769Z,67.50
2018-05-27T05:37:10.750Z,67.50
2018-05-27T05:38:10.724Z,67.50
2018-05-27T05:39:10.715Z,67.50
2018-05-27T05:40:10.707Z,61.88
2018-05-27T05:41:10.692Z,61.88
2018-05-27T05:42:10.696Z,61.88
2018-05-27T05:43:10.690Z,61.88
2018-05-27T05:44:10.672Z,67.50
2018-05-27T05:45:10.662Z,73.13
2018-05-27T05:46:10.645Z,73.13
2018-05-27T05:47:10.632Z,73.13
2018-05-27T05:48:10.620Z,73.13
2018-05-27T05:49:10.640Z,73.13
2018-05-27T05:50:10.606Z,67.50
2018-05-27T05:51:10.595Z,61.88
2018-05-27T05:52:10.585Z,61.88
2018-05-27T05:53:10.584Z,67.50
2018-05-27T05:54:10.613Z,67.50
2018-05-27T05:55:10.593Z,67.50
2018-05-27T05:56:10.549Z,67.50
2018-05-27T05:57:10.536Z,67.50
2018-05-27T05:58:10.523Z,73.13
2018-05-27T05:59:10.534Z,73.13
2018-05-27T06:00:10.503Z,73.13
2018-05-27T06:01:10.506Z,73.13
2018-05-27T06:02:10.493Z,78.75
2018-05-27T06:03:10.479Z,78.75
2018-05-27T06:04:10.490Z,78.75
2018-05-27T06:05:10.501Z,78.75
2018-05-27T06:06:10.449Z,78.75
2018-05-27T06:07:10.471Z,78.75
2018-05-27T06:08:10.429Z,78.75
2018-05-27T06:09:10.453Z,78.75
2018-05-27T06:10:10.426Z,78.75
2018-05-27T06:11:10.411Z,78.75
2018-05-27T06:12:10.389Z,84.38
2018-05-27T06:13:10.374Z,84.38
2018-05-27T06:14:10.366Z,90.00
2018-05-27T06:15:10.381Z,90.00
2018-05-27T06:16:10.354Z,95.63
2018-05-27T06:17:10.346Z,95.63
2018-05-27T06:18:10.335Z,101.25
2018-05-27T06:19:10.321Z,106.88
2018-05-27T06:20:10.340Z,106.88
2018-05-27T06:21:10.319Z,112.50
2018-05-27T06:22:10.293Z,118.13
2018-05-27T06:23:10.287Z,123.75
2018-05-27T06:24:10.273Z,135.00
2018-05-27T06:25:10.281Z,146.25
2018-05-27T06:26:10.279Z,157.50
2018-05-27T06:27:10.271Z,174.38
2018-05-27T06:28:10.232Z,185.63
2018-05-27T06:29:10.227Z,185.63
2018-05-27T06:30:10.223Z,180.00
2018-05-27T06:31:10.259Z,168.75
2018-05-27T06:32:10.205Z,157.50
2018-05-27T06:33:10.203Z,151.88
2018-05-27T06:34:10.183Z,146.25
2018-05-27T06:35:10.174Z,140.63
2018-05-27T06:36:10.194Z,146.25
2018-05-27T06:37:10.166Z,146.25
2018-05-27T06:38:10.157Z,151.88
2018-05-27T06:39:10.140Z,140.63
2018-05-27T06:40:10.124Z,146.25
2018-05-27T06:41:10.118Z,151.88
2018-05-27T06:42:10.135Z,163.13
2018-05-27T06:43:10.112Z,163.13
2018-05-27T06:44:10.111Z,163.13
2018-05-27T06:45:10.086Z,163.13
2018-05-27T06:46:10.073Z,163.13
2018-05-27T06:47:10.087Z,163.13
2018-05-27T06:48:10.081Z,163.13
2018-05-27T06:49:10.058Z,168.75
2018-05-27T06:50:10.062Z,174.38
2018-05-27T06:51:10.063Z,174.38
2018-05-27T06:52:10.039Z,163.13
2018-05-27T06:53:10.036Z,157.50
2018-05-27T06:54:10.009Z,157.50
2018-05-27T06:55:10.002Z,163.13
2018-05-27T06:56:10.005Z,157.50
2018-05-27T06:57:09.995Z,163.13
2018-05-27T06:58:09.988Z,168.75
2018-05-27T06:59:09.965Z,168.75
2018-05-27T07:00:09.989Z,163.13
2018-05-27T07:01:09.947Z,163.13
2018-05-27T07:02:09.946Z,157.50
2018-05-27T07:03:09.936Z,146.25
2018-05-27T07:04:09.943Z,135.00
2018-05-27T07:05:09.915Z,135.00
2018-05-27T07:06:09.913Z,123.75
2018-05-27T07:07:09.897Z,129.38
2018-05-27T07:08:09.887Z,123.75
2018-05-27T07:09:09.897Z,118.13
2018-05-27T07:10:09.876Z,123.75
2018-05-27T07:11:09.886Z,129.38
2018-05-27T07:12:09.854Z,151.88
2018-05-27T07:13:09.864Z,151.88
2018-05-27T07:14:09.858Z,146.25
2018-05-27T07:15:09.843Z,140.63
2018-05-27T07:16:09.826Z,140.63
2018-05-27T07:17:09.878Z,140.63
2018-05-27T07:18:09.834Z,140.63
2018-05-27T07:19:09.799Z,146.25
2018-05-27T07:20:09.809Z,140.63
2018-05-27T07:21:09.785Z,140.63
2018-05-27T07:22:09.775Z,140.63
2018-05-27T07:23:09.770Z,140.63
2018-05-27T07:24:09.758Z,146.25
2018-05-27T07:25:09.758Z,140.63
2018-05-27T07:26:09.766Z,140.63
2018-05-27T07:27:09.751Z,140.63
2018-05-27T07:28:09.738Z,135.00
2018-05-27T07:29:09.735Z,135.00
2018-05-27T07:30:09.706Z,135.00
2018-05-27T07:31:09.706Z,135.00
2018-05-27T07:32:09.703Z,129.38
2018-05-27T07:33:09.684Z,135.00
2018-05-27T07:34:09.677Z,140.63
2018-05-27T07:35:09.696Z,146.25
2018-05-27T07:36:09.657Z,146.25
2018-05-27T07:37:09.651Z,140.63
2018-05-27T07:38:09.643Z,140.63
2018-05-27T07:39:09.651Z,140.63
2018-05-27T07:40:09.636Z,140.63
2018-05-27T07:41:09.637Z,146.25
2018-05-27T07:42:09.613Z,140.63
2018-05-27T07:43:09.596Z,140.63
2018-05-27T07:44:09.597Z,140.63
2018-05-27T07:45:09.588Z,146.25
2018-05-27T07:46:09.585Z,151.88
2018-05-27T07:47:09.584Z,151.88
2018-05-27T07:48:09.577Z,151.88
2018-05-27T07:49:09.554Z,157.50
2018-05-27T07:50:09.551Z,157.50
2018-05-27T07:51:09.540Z,163.13
2018-05-27T07:52:09.547Z,157.50
2018-05-27T07:53:09.526Z,163.13
2018-05-27T07:54:09.521Z,163.13
2018-05-27T07:55:09.512Z,163.13
2018-05-27T07:56:09.500Z,168.75
2018-05-27T07:57:09.505Z,174.38
2018-05-27T07:58:09.505Z,174.38
2018-05-27T07:59:09.481Z,174.38
2018-05-27T08:00:09.468Z,174.38
2018-05-27T08:01:09.455Z,174.38
2018-05-27T08:02:09.454Z,180.00
2018-05-27T08:03:09.444Z,180.00
2018-05-27T08:04:09.477Z,185.63
2018-05-27T08:05:09.428Z,185.63
2018-05-27T08:06:09.416Z,185.63
2018-05-27T08:07:09.427Z,185.63
2018-05-27T08:08:09.408Z,191.25
2018-05-27T08:09:09.401Z,196.88
2018-05-27T08:10:09.407Z,202.50
2018-05-27T08:11:09.387Z,196.88
2018-05-27T08:12:09.371Z,185.63
2018-05-27T08:13:09.367Z,196.88
2018-05-27T08:14:09.361Z,196.88
2018-05-27T08:15:09.367Z,208.13
2018-05-27T08:16:09.347Z,213.75
2018-05-27T08:17:09.336Z,208.13
2018-05-27T08:18:09.346Z,213.75
2018-05-27T08:19:09.331Z,213.75
2018-05-27T08:20:09.331Z,213.75
2018-05-27T08:21:09.317Z,219.38
2018-05-27T08:22:09.300Z,213.75
2018-05-27T08:23:09.291Z,219.38
2018-05-27T08:24:09.294Z,213.75
2018-05-27T08:25:09.344Z,219.38
2018-05-27T08:26:09.269Z,225.00
2018-05-27T08:27:09.256Z,219.38
2018-05-27T08:28:09.261Z,230.63
2018-05-27T08:29:09.241Z,253.13
2018-05-27T08:30:09.260Z,253.13
2018-05-27T08:31:09.231Z,258.75
2018-05-27T08:32:09.227Z,270.00
2018-05-27T08:33:09.215Z,270.00
2018-05-27T08:34:09.212Z,275.63
2018-05-27T08:35:09.255Z,281.25
2018-05-27T08:36:09.192Z,286.88
2018-05-27T08:37:09.193Z,292.50
2018-05-27T08:38:09.194Z,303.75
2018-05-27T08:39:09.174Z,315.00
2018-05-27T08:40:09.173Z,326.25
2018-05-27T08:41:09.174Z,348.75
2018-05-27T08:42:09.149Z,354.38
2018-05-27T08:43:09.141Z,382.50
2018-05-27T08:44:09.145Z,399.38
2018-05-27T08:45:09.140Z,427.50
2018-05-27T08:46:09.144Z,393.75
2018-05-27T08:47:09.121Z,371.25
2018-05-27T08:48:09.115Z,382.50
2018-05-27T08:49:09.106Z,376.88
2018-05-27T08:50:09.094Z,388.13
2018-05-27T08:51:09.099Z,399.38
2018-05-27T08:52:09.100Z,410.63
2018-05-27T08:53:09.081Z,461.25
2018-05-27T08:54:09.076Z,421.88
2018-05-27T08:55:09.070Z,450.00
2018-05-27T08:56:09.100Z,416.25
2018-05-27T08:57:09.057Z,450.00
2018-05-27T08:58:09.050Z,466.88
2018-05-27T08:59:09.043Z,466.88
2018-05-27T09:00:09.041Z,618.75
2018-05-27T09:01:09.068Z,551.25
2018-05-27T09:02:09.042Z,540.00
2018-05-27T09:03:09.017Z,562.50
2018-05-27T09:04:09.013Z,624.38
2018-05-27T09:05:09.001Z,1181.25
2018-05-27T09:06:09.003Z,1636.88
2018-05-27T09:07:08.990Z,2109.38
2018-05-27T09:08:09.001Z,1912.50
2018-05-27T09:09:08.982Z,2126.25
2018-05-27T09:10:08.974Z,2098.13
2018-05-27T09:11:08.972Z,2160.00
2018-05-27T09:12:08.962Z,2160.00
2018-05-27T09:13:08.978Z,2221.88
2018-05-27T09:14:08.957Z,1985.63
2018-05-27T09:15:08.960Z,2019.38
2018-05-27T09:16:08.944Z,1884.38
2018-05-27T09:17:08.938Z,1861.88
2018-05-27T09:18:08.951Z,1788.75
2018-05-27T09:19:08.930Z,1867.50
2018-05-27T09:20:08.929Z,2008.13
2018-05-27T09:21:08.922Z,2075.63
2018-05-27T09:22:08.920Z,2109.38
2018-05-27T09:23:08.926Z,2064.38
2018-05-27T09:24:08.905Z,2176.88
2018-05-27T09:25:08.967Z,2407.50
2018-05-27T09:26:08.895Z,2463.75
2018-05-27T09:27:08.898Z,2278.13
2018-05-27T09:28:08.914Z,2255.63
2018-05-27T09:29:08.890Z,2283.75
2018-05-27T09:30:08.895Z,2030.63
2018-05-27T09:31:08.898Z,2131.88
2018-05-27T09:32:08.885Z,2137.50
2018-05-27T09:33:08.884Z,1642.50
2018-05-27T09:34:08.893Z,1878.75
2018-05-27T09:35:08.873Z,1535.63
2018-05-27T09:36:08.880Z,1732.50
2018-05-27T09:37:08.875Z,1766.25
2018-05-27T09:38:08.875Z,1479.38
2018-05-27T09:39:08.887Z,1749.38
2018-05-27T09:40:08.869Z,1608.75
2018-05-27T09:41:08.871Z,1305.00
2018-05-27T09:42:08.868Z,1220.63
2018-05-27T09:43:08.867Z,641.25
2018-05-27T09:44:08.889Z,1288.13
2018-05-27T09:45:08.880Z,1513.13
2018-05-27T09:46:08.866Z,1738.13
2018-05-27T09:47:08.859Z,1653.75
2018-05-27T09:48:08.858Z,1586.25
2018-05-27T09:49:08.893Z,1423.13
2018-05-27T09:50:08.860Z,1445.63
2018-05-27T09:51:08.903Z,1192.50
2018-05-27T09:52:08.868Z,1293.75
2018-05-27T09:53:08.858Z,1400.63
2018-05-27T09:54:08.857Z,2002.50
2018-05-27T09:55:08.870Z,2058.75
2018-05-27T09:56:08.863Z,1935.00
2018-05-27T09:57:08.865Z,1642.50
2018-05-27T09:58:08.875Z,1895.63
2018-05-27T09:59:08.850Z,1535.63
2018-05-27T10:00:08.852Z,933.75
2018-05-27T10:01:08.863Z,776.25
2018-05-27T10:02:08.864Z,697.50
2018-05-27T10:03:08.842Z,1074.38
2018-05-27T10:04:08.850Z,781.88
2018-05-27T10:05:08.859Z,652.50
2018-05-27T10:06:08.854Z,568.13
2018-05-27T10:07:08.864Z,562.50
2018-05-27T10:08:08.847Z,630.00
2018-05-27T10:09:08.845Z,1321.88
2018-05-27T10:10:08.844Z,877.50
2018-05-27T10:11:08.844Z,596.25
2018-05-27T10:12:08.846Z,556.88
2018-05-27T10:13:08.865Z,945.00
2018-05-27T10:14:08.845Z,1355.63
2018-05-27T10:15:08.833Z,2205.00
2018-05-27T10:16:08.835Z,534.38
2018-05-27T10:17:08.850Z,523.13
2018-05-27T10:18:08.843Z,4190.63
2018-05-27T10:19:08.829Z,1215.00
2018-05-27T10:20:08.831Z,511.88
2018-05-27T10:21:08.830Z,3487.50
2018-05-27T10:22:08.841Z,871.88
2018-05-27T10:23:08.826Z,3076.88
2018-05-27T10:24:08.843Z,2137.50
2018-05-27T10:25:08.830Z,2137.50
2018-05-27T10:26:08.927Z,511.88
2018-05-27T10:27:08.819Z,579.38
2018-05-27T10:28:08.841Z,905.63
2018-05-27T10:29:08.816Z,1856.25
2018-05-27T10:30:08.835Z,511.88
2018-05-27T10:31:08.822Z,405.00
2018-05-27T10:32:08.819Z,736.88
2018-05-27T10:33:08.835Z,1946.25
2018-05-27T10:34:08.837Z,1895.63
2018-05-27T10:35:08.820Z,1861.88
2018-05-27T10:36:08.846Z,1850.63
2018-05-27T10:37:08.817Z,1839.38
2018-05-27T10:38:08.832Z,1867.50
2018-05-27T10:39:08.880Z,1867.50
2018-05-27T10:40:08.819Z,1828.13
2018-05-27T10:41:08.831Z,1001.25
2018-05-27T10:42:08.823Z,939.38
2018-05-27T10:43:08.823Z,1170.00
2018-05-27T10:44:08.824Z,1884.38
2018-05-27T10:45:08.851Z,1029.38
2018-05-27T10:46:08.821Z,804.38
2018-05-27T10:47:08.824Z,793.13
2018-05-27T10:48:08.828Z,703.13
2018-05-27T10:49:08.874Z,658.13
2018-05-27T10:50:08.834Z,708.75
2018-05-27T10:51:08.844Z,652.50
2018-05-27T10:52:08.895Z,444.38
2018-05-27T10:53:08.857Z,388.13
2018-05-27T10:54:08.837Z,348.75
2018-05-27T10:55:08.839Z,320.63
2018-05-27T10:56:08.839Z,331.88
2018-05-27T10:57:08.850Z,348.75
2018-05-27T10:58:08.891Z,371.25
2018-05-27T10:59:08.842Z,388.13
2018-05-27T11:00:08.839Z,382.50
2018-05-27T11:01:08.841Z,360.00
2018-05-27T11:02:08.841Z,354.38
2018-05-27T11:03:08.831Z,331.88
2018-05-27T11:04:08.852Z,320.63
2018-05-27T11:05:08.835Z,315.00
2018-05-27T11:06:08.843Z,303.75
2018-05-27T11:07:08.849Z,298.13
2018-05-27T11:08:08.899Z,309.38
2018-05-27T11:09:08.827Z,303.75
2018-05-27T11:10:09.910Z,303.75
2018-05-27T11:11:08.821Z,303.75
2018-05-27T11:12:08.853Z,315.00
2018-05-27T11:13:08.811Z,371.25
2018-05-27T11:14:08.831Z,393.75
2018-05-27T11:15:08.808Z,511.88
2018-05-27T11:16:08.802Z,405.00
2018-05-27T11:17:08.807Z,382.50
2018-05-27T11:18:08.803Z,388.13
2018-05-27T11:19:08.822Z,511.88
2018-05-27T11:20:08.793Z,483.75
2018-05-27T11:21:08.791Z,360.00
2018-05-27T11:22:08.799Z,309.38
2018-05-27T11:23:08.805Z,275.63
2018-05-27T11:24:08.782Z,264.38
2018-05-27T11:25:08.778Z,253.13
2018-05-27T11:26:08.772Z,241.88
2018-05-27T11:27:08.775Z,253.13
2018-05-27T11:28:08.780Z,253.13
2018-05-27T11:29:08.797Z,253.13
2018-05-27T11:30:08.757Z,247.50
2018-05-27T11:31:08.756Z,258.75
2018-05-27T11:32:08.752Z,286.88
2018-05-27T11:33:08.743Z,281.25
2018-05-27T11:34:08.738Z,258.75
2018-05-27T11:35:08.753Z,264.38
2018-05-27T11:36:08.748Z,281.25
2018-05-27T11:37:08.743Z,270.00
2018-05-27T11:38:08.726Z,247.50
2018-05-27T11:39:08.719Z,275.63
2018-05-27T11:40:08.732Z,303.75
2018-05-27T11:41:08.706Z,315.00
2018-05-27T11:42:08.704Z,326.25
2018-05-27T11:43:08.701Z,309.38
2018-05-27T11:44:08.721Z,264.38
2018-05-27T11:45:08.690Z,253.13
2018-05-27T11:46:08.707Z,236.25
2018-05-27T11:47:08.685Z,219.38
2018-05-27T11:48:08.673Z,196.88
2018-05-27T11:49:08.677Z,168.75
2018-05-27T11:50:08.668Z,140.63
2018-05-27T11:51:08.681Z,112.50
2018-05-27T11:52:08.656Z,95.63
2018-05-27T11:53:08.650Z,90.00
2018-05-27T11:54:08.653Z,84.38
2018-05-27T11:55:08.650Z,90.00
2018-05-27T11:56:08.642Z,95.63
2018-05-27T11:57:08.984Z,101.25
2018-05-27T11:58:08.615Z,112.50
2018-05-27T11:59:08.621Z,123.75
2018-05-27T12:00:08.623Z,135.00
2018-05-27T12:01:08.597Z,151.88
2018-05-27T12:02:08.620Z,146.25
2018-05-27T12:03:08.596Z,151.88
2018-05-27T12:04:08.586Z,163.13
2018-05-27T12:05:08.580Z,163.13
2018-05-27T12:06:08.572Z,168.75
2018-05-27T12:07:08.577Z,174.38
2018-05-27T12:08:08.593Z,180.00
2018-05-27T12:09:14.297Z,185.63
2018-05-27T12:10:08.545Z,185.63
2018-05-27T12:11:08.538Z,180.00
2018-05-27T12:12:08.561Z,174.38
2018-05-27T12:13:08.531Z,168.75
2018-05-27T12:14:08.517Z,168.75
2018-05-27T12:15:08.510Z,168.75
2018-05-27T12:16:08.519Z,163.13
2018-05-27T12:17:08.534Z,157.50
2018-05-27T12:18:08.500Z,146.25
2018-05-27T12:19:08.488Z,140.63
2018-05-27T12:20:08.481Z,129.38
2018-05-27T12:21:09.901Z,135.00
2018-05-27T12:22:08.491Z,129.38
2018-05-27T12:23:08.475Z,135.00
2018-05-27T12:24:08.481Z,135.00
2018-05-27T12:25:08.448Z,135.00
2018-05-27T12:26:08.443Z,118.13
2018-05-27T12:27:08.453Z,112.50
2018-05-27T12:28:08.431Z,95.63
2018-05-27T12:29:08.422Z,90.00
2018-05-27T12:30:08.418Z,95.63
2018-05-27T12:31:08.411Z,95.63
2018-05-27T12:32:08.461Z,106.88
2018-05-27T12:33:08.399Z,101.25
2018-05-27T12:34:08.385Z,95.63
2018-05-27T12:35:08.408Z,95.63
2018-05-27T12:36:08.373Z,95.63
2018-05-27T12:37:08.369Z,90.00
2018-05-27T12:38:08.360Z,90.00
2018-05-27T12:39:08.377Z,90.00
2018-05-27T12:40:08.345Z,84.38
2018-05-27T12:41:08.338Z,78.75
2018-05-27T12:42:08.334Z,78.75
2018-05-27T12:43:08.324Z,78.75
2018-05-27T12:44:08.312Z,78.75
2018-05-27T12:45:08.329Z,78.75